Fronteira, Brazil
Current Conditions -  °F | °C
As of 2:00 PM on Saturday 20 Dec 2014 (Local Time) from SBSR Reporting Station
Thunderstorm Thunderstorm  
Wind Chill: 82°   Ceiling: 6000
Heat Index: 86°   Visibility: 6mi
Dew Point: 70°   Wind: 15mph
Humidity: 66%   Direction: 50°NE
Pressure: 29.88"   Gusts: NA
Location:  20.27°S, 49.2°W
Report Text: SBSR 201600Z 05013KT 9999 -TSRA FEW040CB BKN060 28/21 Q1012
Loading
Personal Weather Stations






























Interactive Weather Map New forecast layout! Learn more

10-Day Weather Forecast

Advertisements
Track Severe Weather on mobile